Time;durP1;ratioP1;P1;durP2;ratioP2;P2;SDS_P1;SDS_P2;PMS_P1;PMS_P2;Temp;Humidity;BMP_temperature;BMP_pressure;BME280_temperature;BME280_humidity;BME280_pressure;Samples;Min_cycle;Max_cycle;Signal;HPM_P1;HPM_P2
2020/12/02 00:00:37;;;;;;;31.40;22.03;;;3.60;99.90;;;;;;5041896;28;20173;-94
2020/12/02 00:03:26;;;;;;;37.53;23.13;;;3.60;99.90;;;;;;5042409;28;20199;-94
2020/12/02 00:05:55;;;;;;;31.70;21.63;;;3.50;99.90;;;;;;5058900;28;20193;-92
2020/12/02 00:08:59;;;;;;;31.57;22.20;;;3.50;99.90;;;;;;5043135;28;20256;-96
2020/12/02 00:11:39;;;;;;;29.50;20.30;;;3.50;99.90;;;;;;5041838;28;20162;-93
2020/12/02 00:14:08;;;;;;;33.37;22.10;;;3.50;99.90;;;;;;5042804;28;20168;-94
2020/12/02 00:16:34;;;;;;;29.17;21.03;;;3.60;99.90;;;;;;5043761;28;20554;-93
2020/12/02 00:19:01;;;;;;;28.73;20.67;;;3.60;99.90;;;;;;5042014;28;20323;-93
2020/12/02 00:21:31;;;;;;;31.33;21.40;;;3.60;99.90;;;;;;5042373;28;20181;-93
2020/12/02 00:24:05;;;;;;;29.97;21.10;;;3.60;99.90;;;;;;5058217;28;20493;-93
2020/12/02 00:26:31;;;;;;;33.17;21.77;;;3.50;99.90;;;;;;5039347;28;20176;-94
2020/12/02 00:28:58;;;;;;;34.33;21.33;;;3.50;99.90;;;;;;5042471;28;20192;-93
2020/12/02 00:31:28;;;;;;;33.40;22.50;;;3.50;99.90;;;;;;5042098;28;20203;-93
2020/12/02 00:33:53;;;;;;;31.20;22.87;;;3.50;99.90;;;;;;5040947;28;20239;-94
2020/12/02 00:36:19;;;;;;;31.43;22.13;;;3.50;99.90;;;;;;5041625;28;20221;-97
2020/12/02 00:38:45;;;;;;;28.67;20.57;;;3.60;99.90;;;;;;5040914;28;20258;-96
2020/12/02 00:41:17;;;;;;;29.93;21.60;;;3.60;99.90;;;;;;5043177;28;20618;-96
2020/12/02 00:43:44;;;;;;;28.20;20.40;;;3.60;99.90;;;;;;5041582;28;20176;-94
2020/12/02 00:46:13;;;;;;;31.20;21.43;;;3.50;99.90;;;;;;5039332;28;20276;-94
2020/12/02 00:48:50;;;;;;;31.30;22.23;;;3.50;99.90;;;;;;5041921;28;20260;-93
2020/12/02 00:51:19;;;;;;;31.17;20.93;;;3.50;99.90;;;;;;5026912;28;20208;-95
2020/12/02 00:53:47;;;;;;;33.27;22.00;;;3.50;99.90;;;;;;5043049;28;20237;-93
2020/12/02 00:56:14;;;;;;;30.43;21.43;;;3.50;99.90;;;;;;5042730;28;20209;-92
2020/12/02 00:59:19;;;;;;;30.80;21.17;;;3.50;99.90;;;;;;5027302;28;20197;-93
2020/12/02 01:02:14;;;;;;;28.80;20.40;;;3.50;99.90;;;;;;5020492;28;20206;-92
2020/12/02 01:04:44;;;;;;;30.73;22.30;;;3.50;99.90;;;;;;5046413;28;20186;-94
2020/12/02 01:07:11;;;;;;;30.40;21.87;;;3.50;99.90;;;;;;5040291;28;20624;-93
2020/12/02 01:09:37;;;;;;;29.20;20.33;;;3.50;99.90;;;;;;5043742;28;20245;-94
2020/12/02 01:12:03;;;;;;;32.43;22.37;;;3.50;99.90;;;;;;5043753;28;20271;-94
2020/12/02 01:14:31;;;;;;;31.57;22.23;;;3.50;99.90;;;;;;5026763;28;20182;-94
2020/12/02 01:17:00;;;;;;;30.83;21.63;;;3.50;99.90;;;;;;5046203;28;20284;-94
2020/12/02 01:19:31;;;;;;;33.00;23.17;;;3.50;99.90;;;;;;5043393;28;20289;-95
2020/12/02 01:22:18;;;;;;;32.00;21.87;;;3.50;99.90;;;;;;5041995;28;20187;-94
2020/12/02 01:25:25;;;;;;;35.03;22.00;;;3.50;99.90;;;;;;5042466;28;20231;-93
2020/12/02 01:28:07;;;;;;;32.63;22.40;;;3.40;99.90;;;;;;5008056;28;20194;-96
2020/12/02 01:30:38;;;;;;;32.33;21.60;;;3.40;99.90;;;;;;5041081;28;20252;-96
2020/12/02 01:33:05;;;;;;;32.27;21.27;;;3.50;99.90;;;;;;5041002;28;20177;-96
2020/12/02 01:35:32;;;;;;;31.77;21.43;;;3.50;99.90;;;;;;5041393;28;20183;-96
2020/12/02 01:38:02;;;;;;;35.27;24.10;;;3.40;99.90;;;;;;5040669;28;20186;-94
2020/12/02 01:40:35;;;;;;;33.60;23.17;;;3.40;99.90;;;;;;5040882;28;20178;-93
2020/12/02 01:43:08;;;;;;;33.07;22.10;;;3.40;99.90;;;;;;5040329;28;20172;-96
2020/12/02 01:45:40;;;;;;;36.50;22.83;;;3.40;99.90;;;;;;5041032;28;20177;-92
2020/12/02 01:48:42;;;;;;;32.30;22.40;;;3.40;99.90;;;;;;5042167;28;20616;-96
2020/12/02 01:51:38;;;;;;;34.67;22.13;;;3.40;99.90;;;;;;5041292;28;20176;-96
2020/12/02 01:54:05;;;;;;;32.60;21.67;;;3.40;99.90;;;;;;5039730;28;20185;-94
2020/12/02 01:56:41;;;;;;;30.97;21.97;;;3.40;99.90;;;;;;5040131;28;20247;-95
2020/12/02 01:59:41;;;;;;;34.93;22.70;;;3.40;99.90;;;;;;5019666;28;20182;-92
2020/12/02 02:02:16;;;;;;;33.50;21.80;;;3.40;99.90;;;;;;5019024;28;20520;-93
2020/12/02 02:05:03;;;;;;;33.93;22.47;;;3.40;99.90;;;;;;5035600;28;20194;-92
2020/12/02 02:07:31;;;;;;;37.57;22.73;;;3.30;99.90;;;;;;5002759;28;20173;-93
2020/12/02 02:10:08;;;;;;;33.60;22.17;;;3.30;99.90;;;;;;5020856;28;20175;-92
2020/12/02 02:12:51;;;;;;;34.17;23.17;;;3.30;99.90;;;;;;5035115;28;20183;-93
2020/12/02 02:15:42;;;;;;;33.53;23.00;;;3.40;99.90;;;;;;5018688;28;20221;-92
2020/12/02 02:18:37;;;;;;;34.67;22.27;;;3.40;99.90;;;;;;5034847;28;20233;-92
2020/12/02 02:21:23;;;;;;;31.80;21.63;;;3.40;99.90;;;;;;5004946;28;20182;-93
2020/12/02 02:23:49;;;;;;;33.90;21.90;;;3.40;99.90;;;;;;5018923;28;20258;-93
2020/12/02 02:26:15;;;;;;;36.03;22.30;;;3.40;99.90;;;;;;5019175;28;20200;-94
2020/12/02 02:29:07;;;;;;;32.80;21.83;;;3.30;99.90;;;;;;5034885;28;20647;-93
2020/12/02 02:31:39;;;;;;;33.30;21.97;;;3.40;99.90;;;;;;5018618;28;20603;-93
2020/12/02 02:34:07;;;;;;;35.07;22.60;;;3.30;99.90;;;;;;5034294;28;20180;-93
2020/12/02 02:36:33;;;;;;;33.23;22.00;;;3.30;99.90;;;;;;5033675;28;20213;-94
2020/12/02 02:38:59;;;;;;;33.90;22.77;;;3.30;99.90;;;;;;5034455;28;20187;-94
2020/12/02 02:41:55;;;;;;;32.47;22.50;;;3.30;99.90;;;;;;5034964;28;20195;-93
2020/12/02 02:44:20;;;;;;;31.37;21.33;;;3.30;99.90;;;;;;5036644;28;20182;-93
2020/12/02 02:46:49;;;;;;;33.47;21.23;;;3.30;99.90;;;;;;5036649;28;20184;-94
2020/12/02 02:49:15;;;;;;;36.03;22.37;;;3.30;99.90;;;;;;5020147;28;20246;-92
2020/12/02 02:51:44;;;;;;;32.53;21.77;;;3.30;99.90;;;;;;5034636;28;20205;-95
2020/12/02 02:54:11;;;;;;;32.00;22.20;;;3.30;99.90;;;;;;5035733;28;20209;-94
2020/12/02 02:56:36;;;;;;;32.57;21.83;;;3.30;99.90;;;;;;5051673;28;20297;-93
2020/12/02 02:59:02;;;;;;;32.60;22.83;;;3.40;99.90;;;;;;5040016;28;20210;-94
2020/12/02 03:01:32;;;;;;;31.93;22.07;;;3.30;99.90;;;;;;5039705;28;20185;-93
2020/12/02 03:03:57;;;;;;;31.90;21.80;;;3.40;99.90;;;;;;5040265;28;20211;-93
2020/12/02 03:06:23;;;;;;;28.87;20.40;;;3.30;99.90;;;;;;5038958;28;20200;-96
2020/12/02 03:08:50;;;;;;;32.07;21.90;;;3.30;99.90;;;;;;5037535;28;20184;-96
2020/12/02 03:11:20;;;;;;;30.47;21.07;;;3.30;99.90;;;;;;5021294;28;20299;-96
2020/12/02 03:13:49;;;;;;;32.83;22.40;;;3.30;99.90;;;;;;5038410;28;20188;-96
2020/12/02 03:16:18;;;;;;;32.40;22.37;;;3.30;99.90;;;;;;5038344;28;20222;-93
2020/12/02 03:18:46;;;;;;;33.43;22.10;;;3.30;99.90;;;;;;5039563;28;20269;-93
2020/12/02 03:21:20;;;;;;;31.83;21.23;;;3.30;99.90;;;;;;5021562;28;20190;-94
2020/12/02 03:23:48;;;;;;;29.77;21.10;;;3.30;99.90;;;;;;5039291;28;20173;-96
2020/12/02 03:26:15;;;;;;;30.80;22.03;;;3.40;99.90;;;;;;5040028;28;20174;-94
2020/12/02 03:28:41;;;;;;;30.17;21.27;;;3.30;99.90;;;;;;5023011;28;20194;-95
2020/12/02 03:31:16;;;;;;;35.03;22.90;;;3.30;99.90;;;;;;5017620;28;20270;-95
2020/12/02 03:33:42;;;;;;;35.33;22.40;;;3.40;99.90;;;;;;5019370;28;20266;-94
2020/12/02 03:36:12;;;;;;;32.23;21.93;;;3.30;99.90;;;;;;5017772;28;20287;-92
2020/12/02 03:38:38;;;;;;;33.53;22.57;;;3.30;99.90;;;;;;5020532;28;20501;-94
2020/12/02 03:41:05;;;;;;;31.50;20.57;;;3.30;99.90;;;;;;5018510;28;20516;-93
2020/12/02 03:43:30;;;;;;;33.33;21.43;;;3.30;99.90;;;;;;5018114;28;20181;-92
2020/12/02 03:45:56;;;;;;;31.03;21.67;;;3.30;99.90;;;;;;5018678;28;20241;-96
2020/12/02 03:48:22;;;;;;;30.37;20.47;;;3.30;99.90;;;;;;5017638;28;20179;-93
2020/12/02 03:50:51;;;;;;;33.43;21.57;;;3.30;99.90;;;;;;5018244;28;20637;-93
2020/12/02 03:53:22;;;;;;;32.80;21.43;;;3.30;99.90;;;;;;5018697;28;20280;-93
2020/12/02 03:55:48;;;;;;;32.23;21.93;;;3.30;99.90;;;;;;5016970;28;20171;-95
2020/12/02 03:58:14;;;;;;;32.87;22.60;;;3.30;99.90;;;;;;5028744;28;20200;-92
2020/12/02 04:00:41;;;;;;;32.83;21.50;;;3.30;99.90;;;;;;5037071;28;20187;-90
2020/12/02 04:03:08;;;;;;;34.03;21.93;;;3.30;99.90;;;;;;5036388;28;20189;-96
2020/12/02 04:05:34;;;;;;;33.47;22.47;;;3.30;99.90;;;;;;5035216;28;20276;-96
2020/12/02 04:08:00;;;;;;;32.07;21.50;;;3.20;99.90;;;;;;5020119;28;20547;-96
2020/12/02 04:10:26;;;;;;;35.07;22.47;;;3.20;99.90;;;;;;5036142;28;20184;-95
2020/12/02 04:12:54;;;;;;;33.03;22.03;;;3.30;99.90;;;;;;5035499;28;20180;-96
2020/12/02 04:15:21;;;;;;;30.27;21.27;;;3.30;99.90;;;;;;5035516;28;20294;-96
2020/12/02 04:17:47;;;;;;;31.83;22.10;;;3.30;99.90;;;;;;5037226;28;20222;-96
2020/12/02 04:20:17;;;;;;;31.50;22.47;;;3.20;99.90;;;;;;5039164;28;20181;-96
2020/12/02 04:22:51;;;;;;;31.60;21.37;;;3.20;99.90;;;;;;5043153;28;20185;-96
2020/12/02 04:25:20;;;;;;;33.10;22.10;;;3.20;99.90;;;;;;5039640;28;20181;-96
2020/12/02 04:27:45;;;;;;;30.80;20.90;;;3.20;99.90;;;;;;5043321;28;20175;-96
2020/12/02 04:30:12;;;;;;;32.17;21.10;;;3.20;99.90;;;;;;5040381;28;20630;-95
2020/12/02 04:32:40;;;;;;;30.27;21.47;;;3.30;99.90;;;;;;5040428;28;20186;-94
2020/12/02 04:35:06;;;;;;;34.10;22.40;;;3.20;99.90;;;;;;5039316;28;20178;-95
2020/12/02 04:37:34;;;;;;;29.60;19.87;;;3.30;99.90;;;;;;5037725;28;20225;-94
2020/12/02 04:40:00;;;;;;;32.53;21.33;;;3.30;99.90;;;;;;5039006;28;20188;-94
2020/12/02 04:42:43;;;;;;;33.03;22.67;;;3.30;99.90;;;;;;5039670;28;20181;-95
2020/12/02 04:45:13;;;;;;;31.60;21.33;;;3.20;99.90;;;;;;5039697;28;20161;-96
2020/12/02 04:47:41;;;;;;;32.13;21.50;;;3.20;99.90;;;;;;5039425;28;20178;-96
2020/12/02 04:50:26;;;;;;;28.97;20.40;;;3.20;99.90;;;;;;5038770;28;20186;-96
2020/12/02 04:53:15;;;;;;;32.27;21.43;;;3.20;99.90;;;;;;5041323;28;20166;-95
2020/12/02 04:55:43;;;;;;;34.63;22.37;;;3.20;99.90;;;;;;5039973;28;20174;-96
2020/12/02 04:58:36;;;;;;;32.10;21.53;;;3.20;99.90;;;;;;5039717;28;20180;-96
2020/12/02 05:01:22;;;;;;;33.47;22.10;;;3.20;99.90;;;;;;5035927;28;20220;-95
2020/12/02 05:04:30;;;;;;;33.37;22.47;;;3.20;99.90;;;;;;5039375;28;20188;-95
2020/12/02 05:07:11;;;;;;;33.63;22.10;;;3.20;99.90;;;;;;5063878;28;20638;-96
2020/12/02 05:09:54;;;;;;;33.00;22.03;;;3.20;99.90;;;;;;5049322;28;20173;-96
2020/12/02 05:12:42;;;;;;;33.97;22.57;;;3.20;99.90;;;;;;5053929;28;20173;-96
2020/12/02 05:15:28;;;;;;;32.03;21.40;;;3.20;99.90;;;;;;5049862;28;20174;-96
2020/12/02 05:18:20;;;;;;;32.93;22.03;;;3.20;99.90;;;;;;5048931;28;20234;-96
2020/12/02 05:21:01;;;;;;;31.53;21.60;;;3.20;99.90;;;;;;5040361;28;20180;-96
2020/12/02 05:23:31;;;;;;;32.83;22.23;;;3.20;99.90;;;;;;5040821;28;20170;-95
2020/12/02 05:25:57;;;;;;;32.10;21.87;;;3.20;99.90;;;;;;5040107;28;20212;-93
2020/12/02 05:28:28;;;;;;;38.63;22.70;;;3.20;99.90;;;;;;5026913;28;20190;-96
2020/12/02 05:31:20;;;;;;;33.07;22.67;;;3.10;99.90;;;;;;5017291;28;20186;-94
2020/12/02 05:33:46;;;;;;;31.80;21.90;;;3.10;99.90;;;;;;5033756;28;20226;-91
2020/12/02 05:36:28;;;;;;;32.10;21.90;;;3.20;99.90;;;;;;5017754;28;20363;-95
2020/12/02 05:39:02;;;;;;;33.27;22.17;;;3.20;99.90;;;;;;5017389;28;20607;-91
2020/12/02 05:41:29;;;;;;;31.03;21.50;;;3.20;99.90;;;;;;5017485;28;20257;-90
2020/12/02 05:44:18;;;;;;;34.17;22.13;;;3.10;99.90;;;;;;5017126;28;20185;-96
2020/12/02 05:46:49;;;;;;;30.37;21.07;;;3.20;99.90;;;;;;5017754;28;20696;-91
2020/12/02 05:49:38;;;;;;;31.73;22.13;;;3.20;99.90;;;;;;5017489;28;20202;-92
2020/12/02 05:52:10;;;;;;;33.70;22.80;;;3.20;99.90;;;;;;4990253;28;20195;-90
2020/12/02 05:54:36;;;;;;;44.20;22.60;;;3.10;99.90;;;;;;5018680;28;20174;-94
2020/12/02 05:57:04;;;;;;;34.50;23.27;;;3.10;99.90;;;;;;5021736;28;20213;-92
2020/12/02 05:59:30;;;;;;;33.53;22.80;;;3.10;99.90;;;;;;5041417;28;20271;-95
2020/12/02 06:02:01;;;;;;;34.70;21.50;;;3.10;99.90;;;;;;5040658;28;20589;-96
2020/12/02 06:04:41;;;;;;;36.57;23.77;;;3.10;99.90;;;;;;5040200;28;20181;-95
2020/12/02 06:07:09;;;;;;;34.00;22.97;;;3.10;99.90;;;;;;5040651;28;20596;-96
2020/12/02 06:09:43;;;;;;;37.23;23.00;;;3.10;99.90;;;;;;5040856;28;20170;-93
2020/12/02 06:12:14;;;;;;;32.63;22.97;;;3.10;99.90;;;;;;5040774;28;20177;-93
2020/12/02 06:14:40;;;;;;;38.00;24.00;;;3.10;99.90;;;;;;5040316;28;20205;-91
2020/12/02 06:17:10;;;;;;;36.90;23.50;;;3.10;99.90;;;;;;5040578;28;20209;-91
2020/12/02 06:19:47;;;;;;;35.90;22.60;;;3.10;99.90;;;;;;5036477;28;20238;-90
2020/12/02 06:22:13;;;;;;;35.13;23.10;;;3.10;99.90;;;;;;5036730;28;20257;-90
2020/12/02 06:24:43;;;;;;;35.73;23.97;;;3.00;99.90;;;;;;5038332;28;20213;-93
2020/12/02 06:27:16;;;;;;;35.07;23.30;;;3.00;99.90;;;;;;5037883;28;20190;-89
2020/12/02 06:30:05;;;;;;;36.43;22.93;;;3.00;99.90;;;;;;5016633;28;20177;-92
2020/12/02 06:32:32;;;;;;;38.80;23.53;;;3.00;99.90;;;;;;5019595;28;20167;-94
2020/12/02 06:35:12;;;;;;;32.30;22.53;;;3.00;99.90;;;;;;5017721;28;20163;-92
2020/12/02 06:37:37;;;;;;;35.47;22.77;;;3.00;99.90;;;;;;5018394;28;20207;-92
2020/12/02 06:40:03;;;;;;;33.10;22.70;;;3.00;99.90;;;;;;5017729;28;20242;-93
2020/12/02 06:42:48;;;;;;;38.53;24.50;;;3.00;99.90;;;;;;5018949;28;20749;-93
2020/12/02 06:45:34;;;;;;;36.20;23.07;;;3.00;99.90;;;;;;5018581;28;20174;-94
2020/12/02 06:48:13;;;;;;;36.60;23.60;;;3.00;99.90;;;;;;5019358;28;20260;-93
2020/12/02 06:50:39;;;;;;;36.27;22.93;;;3.00;99.90;;;;;;5018769;28;20167;-93
2020/12/02 06:53:19;;;;;;;38.77;24.20;;;3.00;99.90;;;;;;5019877;28;20212;-94
2020/12/02 06:55:46;;;;;;;35.40;23.20;;;2.90;99.90;;;;;;5002364;28;20221;-93
2020/12/02 06:58:19;;;;;;;39.53;24.33;;;2.90;99.90;;;;;;5018837;28;20191;-96
2020/12/02 07:00:47;;;;;;;37.43;25.07;;;3.00;99.90;;;;;;5019730;28;20171;-93
2020/12/02 07:03:34;;;;;;;35.57;23.00;;;3.00;99.90;;;;;;5016760;28;20629;-93
2020/12/02 07:06:20;;;;;;;40.17;24.67;;;3.00;99.90;;;;;;5016869;28;20171;-93
2020/12/02 07:08:50;;;;;;;36.30;24.10;;;3.00;99.90;;;;;;5019001;28;20178;-95
2020/12/02 07:11:19;;;;;;;37.13;24.37;;;3.00;99.90;;;;;;5018367;28;20187;-94
2020/12/02 07:14:18;;;;;;;35.57;23.57;;;3.00;99.90;;;;;;5019845;28;20177;-94
2020/12/02 07:16:56;;;;;;;35.07;24.20;;;2.90;99.90;;;;;;5019650;28;20220;-94
2020/12/02 07:19:37;;;;;;;36.30;24.60;;;2.90;99.90;;;;;;5033222;28;20318;-93
2020/12/02 07:22:20;;;;;;;35.77;24.27;;;2.90;99.90;;;;;;5039373;28;20314;-96
2020/12/02 07:24:51;;;;;;;37.97;23.40;;;2.90;99.90;;;;;;5037189;28;20201;-93
2020/12/02 07:27:20;;;;;;;39.77;24.83;;;3.00;99.90;;;;;;5037753;28;20697;-93
2020/12/02 07:29:59;;;;;;;37.87;24.07;;;2.90;99.90;;;;;;5037554;28;20217;-96
2020/12/02 07:32:25;;;;;;;37.03;24.60;;;2.90;99.90;;;;;;5037431;28;20605;-93
2020/12/02 07:35:12;;;;;;;36.93;23.97;;;3.00;99.90;;;;;;5037098;28;20192;-92
2020/12/02 07:37:38;;;;;;;38.63;23.30;;;2.90;99.90;;;;;;5048435;28;20211;-93
2020/12/02 07:40:06;;;;;;;36.17;23.03;;;3.00;99.90;;;;;;5056653;28;20178;-93
2020/12/02 07:42:38;;;;;;;37.73;23.87;;;2.90;99.90;;;;;;5038482;28;20276;-94
2020/12/02 07:45:25;;;;;;;38.10;23.90;;;2.90;99.90;;;;;;5055980;28;20282;-93
2020/12/02 07:47:52;;;;;;;37.50;24.67;;;2.90;99.90;;;;;;5056870;28;20320;-94
2020/12/02 07:50:32;;;;;;;36.73;25.13;;;2.90;99.90;;;;;;5055492;28;20190;-92
2020/12/02 07:53:04;;;;;;;35.93;23.60;;;2.90;99.90;;;;;;5056467;28;20176;-91
2020/12/02 07:55:47;;;;;;;38.83;24.00;;;2.90;99.90;;;;;;5056494;28;20344;-91
2020/12/02 07:58:29;;;;;;;38.57;25.90;;;2.90;99.90;;;;;;5030508;28;20236;-93
2020/12/02 08:00:57;;;;;;;39.23;25.37;;;3.00;99.90;;;;;;5036065;28;20164;-91
2020/12/02 08:03:40;;;;;;;39.83;25.17;;;2.90;99.90;;;;;;5036210;28;20234;-93
2020/12/02 08:06:31;;;;;;;41.63;24.20;;;3.00;99.90;;;;;;5036219;28;20178;-92
2020/12/02 08:08:57;;;;;;;38.47;24.67;;;2.90;99.90;;;;;;5036409;28;20675;-93
2020/12/02 08:11:23;;;;;;;38.43;25.50;;;2.90;99.90;;;;;;5036133;28;20193;-92
2020/12/02 08:14:05;;;;;;;38.80;23.83;;;3.00;99.90;;;;;;5035830;28;20185;-92
2020/12/02 08:16:42;;;;;;;36.17;24.60;;;2.90;99.90;;;;;;5035945;28;20646;-93
2020/12/02 08:19:11;;;;;;;43.03;24.73;;;3.00;99.90;;;;;;5034787;28;20265;-92
2020/12/02 08:21:38;;;;;;;36.20;23.63;;;3.00;99.90;;;;;;5036839;28;20633;-94
2020/12/02 08:24:28;;;;;;;40.03;26.47;;;3.00;99.90;;;;;;5035990;28;20175;-91
2020/12/02 08:26:54;;;;;;;37.17;23.43;;;3.10;99.90;;;;;;5036218;28;20210;-92
2020/12/02 08:29:23;;;;;;;38.43;23.80;;;3.00;99.90;;;;;;5015980;28;20189;-94
2020/12/02 08:32:24;;;;;;;37.00;23.73;;;3.00;99.90;;;;;;5015734;28;20171;-92
2020/12/02 08:34:54;;;;;;;35.33;23.40;;;3.00;99.90;;;;;;5015341;28;20185;-92
2020/12/02 08:37:20;;;;;;;37.60;24.20;;;3.10;99.90;;;;;;5015523;28;20614;-93
2020/12/02 08:39:50;;;;;;;37.17;25.87;;;3.10;99.90;;;;;;5031271;28;20187;-93
2020/12/02 08:42:28;;;;;;;38.33;23.30;;;3.10;99.90;;;;;;5015842;28;20560;-91
2020/12/02 08:45:14;;;;;;;41.67;24.10;;;3.10;99.90;;;;;;5015251;28;20277;-93
2020/12/02 08:47:40;;;;;;;43.93;26.87;;;3.10;99.90;;;;;;5031585;28;20167;-95
2020/12/02 08:50:17;;;;;;;41.47;25.63;;;3.00;99.90;;;;;;5015559;28;20177;-92
2020/12/02 08:52:50;;;;;;;42.23;25.93;;;3.00;99.90;;;;;;5016550;28;20169;-94
2020/12/02 08:55:18;;;;;;;39.67;25.77;;;3.00;99.90;;;;;;5015269;28;20191;-93
2020/12/02 08:57:44;;;;;;;40.70;25.90;;;3.00;99.90;;;;;;5021597;28;20687;-93
2020/12/02 09:00:12;;;;;;;40.27;26.23;;;3.00;99.90;;;;;;5035318;28;20180;-93
2020/12/02 09:02:38;;;;;;;39.13;26.13;;;3.00;99.90;;;;;;5041998;28;20240;-96
2020/12/02 09:05:07;;;;;;;43.10;25.83;;;3.00;99.90;;;;;;5046109;28;20204;-94
2020/12/02 09:07:32;;;;;;;41.20;25.80;;;3.00;99.90;;;;;;5046932;28;20164;-96
2020/12/02 09:09:58;;;;;;;40.93;26.30;;;3.00;99.90;;;;;;5047085;28;20152;-95
2020/12/02 09:12:24;;;;;;;47.10;26.33;;;3.10;99.90;;;;;;5028681;28;20216;-96
2020/12/02 09:14:54;;;;;;;45.63;27.80;;;3.10;99.90;;;;;;5046325;28;20174;-96
2020/12/02 09:17:20;;;;;;;39.10;24.87;;;3.10;99.90;;;;;;5048230;28;20191;-96
2020/12/02 09:19:45;;;;;;;39.70;26.10;;;3.10;99.90;;;;;;5043038;28;20670;-96
2020/12/02 09:22:14;;;;;;;43.73;27.00;;;3.10;99.90;;;;;;5040757;28;20187;-95
2020/12/02 09:24:43;;;;;;;39.77;25.27;;;3.20;99.90;;;;;;5043798;28;20187;-96
2020/12/02 09:27:10;;;;;;;43.03;26.67;;;3.10;99.90;;;;;;5037048;28;20179;-94
2020/12/02 09:29:35;;;;;;;41.67;27.40;;;3.10;99.90;;;;;;5035677;28;20183;-93
2020/12/02 09:32:01;;;;;;;41.77;26.07;;;3.10;99.90;;;;;;5037889;28;20185;-94
2020/12/02 09:34:29;;;;;;;46.17;28.00;;;3.10;99.90;;;;;;5038451;28;20197;-96
2020/12/02 09:36:54;;;;;;;40.67;26.27;;;3.20;99.90;;;;;;5038368;28;20309;-94
2020/12/02 09:39:21;;;;;;;42.83;26.87;;;3.20;99.90;;;;;;5037798;28;20213;-92
2020/12/02 09:42:08;;;;;;;43.30;27.47;;;3.20;99.90;;;;;;5037792;28;20271;-92
2020/12/02 09:45:14;;;;;;;42.30;25.67;;;3.20;99.90;;;;;;5037874;28;20190;-94
2020/12/02 09:47:41;;;;;;;42.03;25.40;;;3.20;99.90;;;;;;5038234;28;20254;-95
2020/12/02 09:50:08;;;;;;;45.83;27.93;;;3.30;99.90;;;;;;5037539;28;20237;-94
2020/12/02 09:52:45;;;;;;;46.43;28.07;;;3.20;99.90;;;;;;5037992;28;20200;-94
2020/12/02 09:55:19;;;;;;;47.07;28.53;;;3.20;99.90;;;;;;5037874;28;20180;-95
2020/12/02 09:57:44;;;;;;;48.60;28.77;;;3.20;99.90;;;;;;5038341;28;20683;-95
2020/12/02 10:00:12;;;;;;;48.03;29.97;;;3.30;99.90;;;;;;5038058;28;20189;-94
2020/12/02 10:03:00;;;;;;;51.30;29.80;;;3.30;99.90;;;;;;5038390;28;20499;-95
2020/12/02 10:06:13;;;;;;;53.33;29.63;;;3.20;99.90;;;;;;5037779;28;20272;-94
2020/12/02 10:09:18;;;;;;;48.50;27.87;;;3.20;99.90;;;;;;5037772;28;20663;-94
2020/12/02 10:12:33;;;;;;;46.87;28.50;;;3.20;99.90;;;;;;5049585;28;20602;-96
2020/12/02 10:15:27;;;;;;;45.17;27.90;;;3.20;99.90;;;;;;4994377;28;20190;-95
2020/12/02 10:17:55;;;;;;;48.23;28.53;;;3.30;99.90;;;;;;5012584;28;20218;-94
2020/12/02 10:20:27;;;;;;;47.77;29.00;;;3.30;99.90;;;;;;5020478;28;20193;-94
2020/12/02 10:23:37;;;;;;;43.67;28.70;;;3.30;99.90;;;;;;5025281;28;20185;-95
2020/12/02 10:26:20;;;;;;;47.83;29.00;;;3.30;99.90;;;;;;5038013;28;20618;-94
2020/12/02 10:28:59;;;;;;;43.00;27.73;;;3.30;99.90;;;;;;5058228;28;20682;-95
2020/12/02 10:32:00;;;;;;;51.10;30.57;;;3.30;99.90;;;;;;5061038;28;20213;-94
2020/12/02 10:34:30;;;;;;;50.13;29.57;;;3.30;99.90;;;;;;5060819;28;20184;-94
2020/12/02 10:37:16;;;;;;;49.67;28.83;;;3.30;99.90;;;;;;5060584;28;20577;-93
2020/12/02 10:39:43;;;;;;;56.53;28.83;;;3.40;99.90;;;;;;5060480;28;20206;-93
2020/12/02 10:42:14;;;;;;;44.47;28.13;;;3.40;99.90;;;;;;5059572;28;20263;-94
2020/12/02 10:45:03;;;;;;;45.50;27.60;;;3.50;99.90;;;;;;5060369;28;20175;-93
2020/12/02 10:47:47;;;;;;;42.33;27.57;;;3.50;99.90;;;;;;5046996;28;20261;-93
2020/12/02 10:50:16;;;;;;;45.43;27.87;;;3.60;99.90;;;;;;5040130;28;20515;-94
2020/12/02 10:52:45;;;;;;;45.00;25.57;;;3.70;99.90;;;;;;5040763;28;20205;-94
2020/12/02 10:55:15;;;;;;;44.23;26.13;;;3.70;99.90;;;;;;5041310;28;20323;-93
2020/12/02 10:57:55;;;;;;;39.47;26.47;;;3.70;99.90;;;;;;5052524;28;20341;-93
2020/12/02 11:00:21;;;;;;;41.90;27.13;;;3.80;99.90;;;;;;5026227;28;20193;-94
2020/12/02 11:03:01;;;;;;;38.37;24.93;;;3.80;99.90;;;;;;5041456;28;20260;-94
2020/12/02 11:05:27;;;;;;;41.47;26.07;;;3.80;99.90;;;;;;5041484;28;20261;-96
2020/12/02 11:08:12;;;;;;;43.43;26.63;;;3.90;99.90;;;;;;5058711;28;20185;-94
2020/12/02 11:10:37;;;;;;;37.10;24.90;;;3.90;99.90;;;;;;5040574;28;20270;-95
2020/12/02 11:13:29;;;;;;;42.07;26.10;;;4.00;99.90;;;;;;5040904;28;20638;-93
2020/12/02 11:16:25;;;;;;;38.70;25.63;;;3.90;99.90;;;;;;5040745;28;20182;-93
2020/12/02 11:19:08;;;;;;;41.77;25.77;;;3.90;99.90;;;;;;5040246;28;20255;-93
2020/12/02 11:22:01;;;;;;;42.57;25.93;;;4.00;99.90;;;;;;5040229;28;20639;-93
2020/12/02 11:24:52;;;;;;;39.83;24.80;;;4.00;99.90;;;;;;5041389;28;20188;-92
2020/12/02 11:27:27;;;;;;;36.80;24.50;;;4.00;99.90;;;;;;5039942;28;20212;-92
2020/12/02 11:29:53;;;;;;;36.73;24.73;;;4.00;99.90;;;;;;5039406;28;20215;-93
2020/12/02 11:32:58;;;;;;;44.53;27.10;;;4.10;99.90;;;;;;5023703;28;20192;-92
2020/12/02 11:35:46;;;;;;;40.03;26.03;;;4.10;99.90;;;;;;5040047;28;20177;-90
2020/12/02 11:38:27;;;;;;;38.63;25.17;;;4.10;99.90;;;;;;5056764;28;20521;-90
2020/12/02 11:41:09;;;;;;;50.17;29.47;;;4.10;99.90;;;;;;5038587;28;20185;-94
2020/12/02 11:43:41;;;;;;;46.43;27.80;;;4.20;99.90;;;;;;5039143;28;20628;-93
2020/12/02 11:46:13;;;;;;;52.13;29.33;;;4.20;99.90;;;;;;5071629;28;20218;-91
2020/12/02 11:49:05;;;;;;;50.17;30.73;;;4.10;99.90;;;;;;5046898;28;20189;-95
2020/12/02 11:51:46;;;;;;;49.63;30.10;;;4.20;99.90;;;;;;5038989;28;20597;-93
2020/12/02 11:54:13;;;;;;;52.93;30.37;;;4.10;99.90;;;;;;5036175;28;20178;-94
2020/12/02 11:56:51;;;;;;;52.47;29.70;;;4.10;99.90;;;;;;5035670;28;20278;-94
2020/12/02 11:59:29;;;;;;;49.83;29.50;;;4.00;99.90;;;;;;5053603;28;20527;-93
2020/12/02 12:02:07;;;;;;;49.97;29.67;;;4.00;99.90;;;;;;5077012;28;20169;-95
2020/12/02 12:04:51;;;;;;;50.70;29.13;;;3.80;99.90;;;;;;5052898;28;20191;-93
2020/12/02 12:10:37;;;;;;;58.67;32.17;;;3.60;99.90;;;;;;5057575;28;20255;-94
2020/12/02 12:13:39;;;;;;;63.83;34.60;;;3.50;99.90;;;;;;5057302;28;20549;-94
2020/12/02 12:16:24;;;;;;;65.33;33.50;;;3.40;99.90;;;;;;5050828;28;20168;-95
2020/12/02 12:19:05;;;;;;;62.07;33.93;;;3.30;99.90;;;;;;5053627;28;20224;-93
2020/12/02 12:21:57;;;;;;;61.80;32.70;;;3.30;99.90;;;;;;5018911;28;20173;-94
2020/12/02 12:24:23;;;;;;;64.53;33.70;;;3.30;99.90;;;;;;5019435;28;20180;-95
2020/12/02 12:26:56;;;;;;;59.17;32.70;;;3.30;99.90;;;;;;5019099;28;20177;-95
2020/12/02 12:29:23;;;;;;;60.00;34.13;;;3.30;99.90;;;;;;5019257;28;20177;-93
2020/12/02 12:31:56;;;;;;;61.77;34.90;;;3.30;99.90;;;;;;5020463;28;20181;-94
2020/12/02 12:34:55;;;;;;;56.57;33.07;;;3.40;99.90;;;;;;5058565;28;20202;-94
2020/12/02 12:38:03;;;;;;;55.07;31.63;;;3.40;99.90;;;;;;5058039;28;20212;-94
2020/12/02 12:40:34;;;;;;;63.43;32.10;;;3.40;99.90;;;;;;5058904;28;20167;-94
2020/12/02 12:43:05;;;;;;;61.70;33.77;;;3.40;99.90;;;;;;5058432;28;20174;-93
2020/12/02 12:45:42;;;;;;;60.80;34.13;;;3.40;99.90;;;;;;5043776;28;20185;-90
2020/12/02 12:48:18;;;;;;;57.50;34.27;;;3.50;99.90;;;;;;5045046;28;20182;-92
2020/12/02 12:50:46;;;;;;;55.23;33.00;;;3.50;99.90;;;;;;5040825;28;20199;-93
2020/12/02 12:53:18;;;;;;;55.80;33.10;;;3.50;99.90;;;;;;5039240;28;20560;-94
2020/12/02 12:55:44;;;;;;;56.90;33.10;;;3.50;99.90;;;;;;5038543;28;20632;-93
2020/12/02 12:58:16;;;;;;;60.77;33.47;;;3.50;99.90;;;;;;5038236;28;20365;-91
2020/12/02 13:00:45;;;;;;;55.50;31.63;;;3.50;99.90;;;;;;5038763;28;20212;-94
2020/12/02 13:03:13;;;;;;;54.80;32.30;;;3.50;99.90;;;;;;5037740;28;20233;-93
2020/12/02 13:05:40;;;;;;;53.97;31.50;;;3.50;99.90;;;;;;5040249;28;20185;-92
2020/12/02 13:08:22;;;;;;;59.13;32.37;;;3.60;99.90;;;;;;5041598;28;20182;-91
2020/12/02 13:11:05;;;;;;;59.27;32.87;;;3.60;99.90;;;;;;5041343;28;20221;-90
2020/12/02 13:13:59;;;;;;;58.23;34.10;;;3.70;99.90;;;;;;5041887;28;20192;-93
2020/12/02 13:16:36;;;;;;;53.73;32.50;;;3.70;99.90;;;;;;5041520;28;20205;-93
2020/12/02 13:19:28;;;;;;;59.03;32.67;;;3.70;99.90;;;;;;5037096;28;20225;-93